Time;durP1;ratioP1;P1;durP2;ratioP2;P2;SDS_P1;SDS_P2;PMS_P1;PMS_P2;Temp;Humidity;BMP_temperature;BMP_pressure;BME280_temperature;BME280_humidity;BME280_pressure;Samples;Min_cycle;Max_cycle;Signal;HPM_P1;HPM_P2
2022/03/15 00:01:02;;;;;;;25.13;23.93;;;17.60;53.60;;;;;;5073635;28;20776;-50
2022/03/15 00:03:29;;;;;;;25.00;24.00;;;17.60;53.70;;;;;;5073608;28;20454;-50
2022/03/15 00:05:58;;;;;;;25.47;24.40;;;17.60;53.60;;;;;;5073713;28;20898;-49
2022/03/15 00:08:26;;;;;;;25.43;24.13;;;17.60;53.60;;;;;;5073641;28;20814;-48
2022/03/15 00:10:58;;;;;;;27.20;25.90;;;17.60;53.60;;;;;;5073740;28;20442;-48
2022/03/15 00:13:28;;;;;;;24.90;23.80;;;17.60;53.60;;;;;;5073770;28;20931;-46
2022/03/15 00:15:56;;;;;;;25.13;24.10;;;17.70;53.50;;;;;;5097971;23;20483;-47
2022/03/15 00:18:23;;;;;;;24.77;23.67;;;17.80;53.30;;;;;;5073223;28;20455;-46
2022/03/15 00:20:50;;;;;;;24.10;23.10;;;17.80;53.10;;;;;;5073266;28;20973;-46
2022/03/15 00:23:18;;;;;;;25.60;24.50;;;17.90;52.90;;;;;;5073329;28;20447;-46
2022/03/15 00:25:45;;;;;;;24.77;23.77;;;17.90;52.80;;;;;;5073369;28;20470;-46
2022/03/15 00:28:12;;;;;;;24.57;23.47;;;17.90;52.70;;;;;;5072991;28;20451;-46
2022/03/15 00:30:39;;;;;;;24.67;23.57;;;18.00;52.70;;;;;;5073118;28;20842;-46
2022/03/15 00:33:07;;;;;;;25.00;24.00;;;17.90;52.60;;;;;;5072957;28;20448;-46
2022/03/15 00:35:35;;;;;;;24.33;23.43;;;17.90;52.70;;;;;;5072987;28;21055;-46
2022/03/15 00:38:01;;;;;;;24.70;23.53;;;17.90;52.70;;;;;;5072418;28;20510;-47
2022/03/15 00:40:30;;;;;;;26.20;25.00;;;17.90;52.70;;;;;;5073040;28;20823;-46
2022/03/15 00:42:56;;;;;;;25.00;24.00;;;17.80;52.60;;;;;;5072769;28;20458;-46
2022/03/15 00:45:24;;;;;;;24.77;23.67;;;17.90;52.80;;;;;;5072843;28;20464;-46
2022/03/15 00:47:52;;;;;;;25.50;24.30;;;17.80;52.80;;;;;;5072502;28;20453;-46
2022/03/15 00:50:19;;;;;;;24.93;23.93;;;17.80;52.90;;;;;;5072720;28;20490;-46
2022/03/15 00:52:46;;;;;;;25.80;24.60;;;17.80;53.00;;;;;;5072582;28;20450;-45
2022/03/15 00:55:12;;;;;;;24.90;23.60;;;17.70;53.00;;;;;;5072401;28;20463;-46
2022/03/15 00:57:41;;;;;;;25.30;24.20;;;17.60;53.10;;;;;;5072576;28;20455;-46
2022/03/15 01:00:09;;;;;;;25.37;24.37;;;17.60;53.30;;;;;;5072617;28;20451;-46
2022/03/15 01:02:37;;;;;;;26.07;24.77;;;17.60;53.30;;;;;;5072398;28;20443;-49
2022/03/15 01:05:04;;;;;;;24.10;23.10;;;17.60;53.40;;;;;;5072185;28;20467;-46
2022/03/15 01:07:31;;;;;;;24.87;23.87;;;17.60;53.40;;;;;;5072456;28;20494;-46
2022/03/15 01:09:58;;;;;;;25.83;24.73;;;17.60;53.40;;;;;;5072262;28;20841;-46
2022/03/15 01:12:24;;;;;;;24.37;23.37;;;17.50;53.40;;;;;;5072249;28;20927;-47
2022/03/15 01:14:52;;;;;;;25.20;24.20;;;17.50;53.60;;;;;;5071410;28;20468;-46
2022/03/15 01:17:19;;;;;;;24.87;23.87;;;17.40;53.60;;;;;;5071998;28;20447;-46
2022/03/15 01:19:46;;;;;;;24.40;23.10;;;17.40;53.70;;;;;;5072245;28;20443;-46
2022/03/15 01:22:13;;;;;;;24.43;23.33;;;17.40;53.70;;;;;;5072263;28;20443;-47
2022/03/15 01:24:39;;;;;;;24.10;23.10;;;17.40;53.70;;;;;;5071759;28;20463;-46
2022/03/15 01:27:06;;;;;;;24.10;23.10;;;17.40;53.70;;;;;;5072202;28;20470;-46
2022/03/15 01:29:33;;;;;;;24.70;23.70;;;17.40;53.80;;;;;;5072027;28;20475;-46
2022/03/15 01:32:01;;;;;;;24.17;23.20;;;17.40;53.70;;;;;;5071843;28;20451;-46
2022/03/15 01:34:28;;;;;;;25.23;24.03;;;17.40;53.80;;;;;;5071496;28;20468;-46
2022/03/15 01:36:55;;;;;;;25.37;24.07;;;17.40;53.70;;;;;;5071979;28;20950;-46
2022/03/15 01:39:21;;;;;;;23.73;22.83;;;17.40;53.90;;;;;;5071824;28;20934;-46
2022/03/15 01:41:48;;;;;;;24.40;23.37;;;17.40;53.90;;;;;;5071784;28;20458;-46
2022/03/15 01:44:17;;;;;;;23.83;22.83;;;17.40;53.90;;;;;;5071457;28;20440;-46
2022/03/15 01:46:44;;;;;;;24.57;23.57;;;17.40;53.90;;;;;;5071734;28;20791;-46
2022/03/15 01:49:12;;;;;;;24.50;23.50;;;17.40;53.90;;;;;;5070900;28;20447;-46
2022/03/15 01:51:40;;;;;;;24.40;23.40;;;17.40;53.80;;;;;;5071693;28;20448;-46
2022/03/15 01:54:09;;;;;;;24.67;23.67;;;17.40;53.80;;;;;;5071299;28;20448;-46
2022/03/15 01:56:36;;;;;;;24.20;23.20;;;17.40;53.90;;;;;;5071782;28;20452;-47
2022/03/15 01:59:04;;;;;;;25.87;24.77;;;17.40;53.80;;;;;;5071672;28;20547;-47
2022/03/15 02:01:31;;;;;;;24.43;23.43;;;17.40;53.70;;;;;;5071532;28;20450;-47
2022/03/15 02:03:58;;;;;;;24.57;23.57;;;17.40;53.70;;;;;;5071349;28;20562;-47
2022/03/15 02:06:26;;;;;;;24.47;23.47;;;17.40;53.70;;;;;;5071543;28;20533;-47
2022/03/15 02:08:52;;;;;;;24.20;23.20;;;17.40;53.60;;;;;;5071493;28;20444;-47
2022/03/15 02:11:19;;;;;;;24.40;23.40;;;17.40;53.70;;;;;;5071221;28;20491;-47
2022/03/15 02:13:46;;;;;;;24.03;23.13;;;17.40;53.70;;;;;;5071347;28;20966;-48
2022/03/15 02:16:13;;;;;;;25.90;24.90;;;17.40;53.60;;;;;;5071338;28;20486;-47
2022/03/15 02:18:40;;;;;;;23.90;23.00;;;17.40;53.70;;;;;;5071530;28;20965;-47
2022/03/15 02:21:09;;;;;;;25.60;24.50;;;17.40;53.70;;;;;;5071185;28;20791;-47
2022/03/15 02:23:36;;;;;;;24.83;23.63;;;17.40;53.70;;;;;;5070997;28;20447;-46
2022/03/15 02:26:03;;;;;;;23.60;22.60;;;17.40;53.60;;;;;;5071324;28;20460;-46
2022/03/15 02:28:29;;;;;;;25.60;24.50;;;17.40;53.60;;;;;;5071408;28;20818;-47
2022/03/15 02:30:57;;;;;;;25.27;24.27;;;17.40;53.70;;;;;;5070923;28;20482;-47
2022/03/15 02:33:23;;;;;;;24.53;23.53;;;17.40;53.70;;;;;;5071346;28;20443;-47
2022/03/15 02:35:51;;;;;;;23.70;22.70;;;17.40;53.70;;;;;;5071201;28;20463;-48
2022/03/15 02:38:21;;;;;;;23.87;22.93;;;17.30;53.60;;;;;;5071259;28;20440;-47
2022/03/15 02:40:48;;;;;;;24.30;23.20;;;17.30;53.70;;;;;;5070963;28;20448;-47
2022/03/15 02:43:15;;;;;;;25.27;24.27;;;17.20;53.70;;;;;;5070996;28;20455;-46
2022/03/15 02:45:42;;;;;;;24.13;23.23;;;17.20;54.00;;;;;;5071106;28;20550;-47
2022/03/15 02:48:08;;;;;;;23.70;22.70;;;17.20;54.00;;;;;;5071151;28;20455;-47
2022/03/15 02:50:35;;;;;;;24.33;23.43;;;17.30;54.00;;;;;;5070675;28;20479;-47
2022/03/15 02:53:02;;;;;;;24.70;23.70;;;17.30;54.00;;;;;;5070991;28;20448;-47
2022/03/15 02:55:32;;;;;;;24.00;23.00;;;17.20;53.90;;;;;;5071026;28;20487;-46
2022/03/15 02:57:59;;;;;;;24.10;23.07;;;17.20;53.90;;;;;;5071135;28;20791;-47
2022/03/15 03:00:28;;;;;;;23.80;22.90;;;17.20;54.10;;;;;;5072460;28;20444;-47
2022/03/15 03:02:55;;;;;;;22.97;22.07;;;17.20;54.10;;;;;;5074684;28;20497;-47
2022/03/15 03:05:21;;;;;;;23.40;22.50;;;17.20;54.10;;;;;;5074738;28;20834;-48
2022/03/15 03:07:48;;;;;;;25.30;24.20;;;17.20;54.00;;;;;;5074739;28;20450;-47
2022/03/15 03:10:16;;;;;;;25.67;24.40;;;17.20;54.00;;;;;;5074315;28;20558;-47
2022/03/15 03:12:45;;;;;;;25.10;24.10;;;17.20;54.50;;;;;;5074345;28;20479;-47
2022/03/15 03:15:12;;;;;;;25.27;24.27;;;17.20;54.00;;;;;;5074150;28;20571;-47
2022/03/15 03:17:41;;;;;;;25.40;24.30;;;17.20;54.10;;;;;;5074550;28;20439;-46
2022/03/15 03:20:09;;;;;;;25.27;24.23;;;17.20;54.00;;;;;;5074235;28;20431;-48
2022/03/15 03:22:36;;;;;;;24.50;23.50;;;17.10;54.00;;;;;;5074160;28;20466;-46
2022/03/15 03:25:04;;;;;;;34.97;33.67;;;17.20;54.00;;;;;;5074317;28;20463;-46
2022/03/15 03:27:31;;;;;;;34.53;33.23;;;17.30;53.90;;;;;;5074347;28;20444;-46
2022/03/15 03:30:00;;;;;;;24.53;23.43;;;17.30;53.80;;;;;;5073852;28;20479;-46
2022/03/15 03:32:27;;;;;;;25.10;24.00;;;17.30;53.60;;;;;;5074257;28;20534;-46
2022/03/15 03:34:54;;;;;;;25.00;24.00;;;17.30;53.60;;;;;;5074116;28;20821;-46
2022/03/15 03:37:22;;;;;;;25.17;24.07;;;17.30;53.50;;;;;;5074366;28;20480;-46
2022/03/15 03:39:49;;;;;;;24.93;23.93;;;17.30;53.50;;;;;;5073933;28;20550;-47
2022/03/15 03:42:16;;;;;;;24.87;23.87;;;17.30;53.50;;;;;;5074201;28;20447;-46
2022/03/15 03:44:43;;;;;;;24.80;23.80;;;17.30;53.50;;;;;;5073821;28;20994;-46
2022/03/15 03:47:11;;;;;;;30.30;29.10;;;17.30;53.40;;;;;;5074001;28;20448;-46
2022/03/15 03:49:38;;;;;;;29.70;28.40;;;17.30;53.40;;;;;;5073634;28;20447;-46
2022/03/15 03:52:06;;;;;;;30.47;29.27;;;17.40;53.40;;;;;;5073850;28;20534;-46
2022/03/15 03:54:33;;;;;;;30.17;28.93;;;17.40;53.40;;;;;;5073367;28;21047;-46
2022/03/15 03:57:00;;;;;;;30.90;29.70;;;17.30;53.40;;;;;;5073977;28;20466;-46
2022/03/15 03:59:27;;;;;;;31.27;30.07;;;17.30;53.40;;;;;;5073556;28;20435;-47
2022/03/15 04:01:54;;;;;;;29.13;28.03;;;17.30;53.40;;;;;;5073456;28;20818;-47
2022/03/15 04:04:22;;;;;;;31.00;29.80;;;17.30;53.50;;;;;;5073584;28;20451;-46
2022/03/15 04:06:48;;;;;;;25.30;24.30;;;17.30;53.40;;;;;;5073746;28;20483;-48
2022/03/15 04:09:16;;;;;;;25.80;24.80;;;17.30;53.40;;;;;;5073656;28;20809;-46
2022/03/15 04:11:43;;;;;;;25.63;24.63;;;17.30;53.40;;;;;;5072412;28;20475;-46
2022/03/15 04:14:11;;;;;;;26.67;25.57;;;17.30;53.40;;;;;;5073251;28;20455;-46
2022/03/15 04:16:38;;;;;;;26.10;25.03;;;17.30;53.40;;;;;;5073318;28;20455;-47
2022/03/15 04:19:05;;;;;;;26.13;25.13;;;17.30;53.50;;;;;;5073495;28;20440;-46
2022/03/15 04:21:33;;;;;;;23.83;22.93;;;17.20;53.50;;;;;;5073033;28;20847;-46
2022/03/15 04:24:00;;;;;;;24.90;23.90;;;17.30;53.50;;;;;;5073223;28;20444;-46
2022/03/15 04:26:28;;;;;;;26.47;25.47;;;17.20;53.50;;;;;;5073197;28;20996;-46
2022/03/15 04:28:56;;;;;;;25.23;24.27;;;17.20;53.60;;;;;;5073199;28;20451;-46
2022/03/15 04:31:23;;;;;;;26.43;25.37;;;17.20;53.60;;;;;;5072854;28;20997;-46
2022/03/15 04:33:50;;;;;;;24.33;23.33;;;17.10;53.70;;;;;;5073031;28;20470;-46
2022/03/15 04:36:17;;;;;;;24.40;23.50;;;17.10;53.80;;;;;;5073050;28;20459;-46
2022/03/15 04:38:45;;;;;;;25.43;24.23;;;17.10;53.80;;;;;;5073085;28;20448;-49
2022/03/15 04:41:12;;;;;;;25.13;24.13;;;17.10;53.80;;;;;;5072318;28;20440;-48
2022/03/15 04:43:39;;;;;;;25.40;24.40;;;17.10;53.70;;;;;;5072507;28;20479;-47
2022/03/15 04:46:06;;;;;;;25.70;24.70;;;17.10;53.70;;;;;;5072864;28;20467;-46
2022/03/15 04:48:34;;;;;;;25.03;24.03;;;17.10;53.70;;;;;;5072832;28;20450;-46
2022/03/15 04:51:00;;;;;;;25.57;24.57;;;17.10;53.70;;;;;;5072429;28;20479;-47
2022/03/15 04:53:27;;;;;;;25.30;24.30;;;17.10;53.80;;;;;;5072451;28;20451;-46
2022/03/15 04:55:55;;;;;;;25.43;24.13;;;17.10;53.80;;;;;;5072664;28;20463;-46
2022/03/15 04:58:23;;;;;;;24.70;23.70;;;17.10;53.70;;;;;;5072607;28;20447;-46
2022/03/15 05:00:50;;;;;;;25.50;24.50;;;17.10;53.80;;;;;;5072352;28;20447;-46
2022/03/15 05:03:17;;;;;;;28.40;27.20;;;17.10;53.80;;;;;;5072374;28;20447;-48
2022/03/15 05:05:44;;;;;;;26.53;25.53;;;17.10;53.70;;;;;;5072506;28;20550;-46
2022/03/15 05:08:11;;;;;;;29.20;28.00;;;17.10;53.80;;;;;;5072336;28;20451;-46
2022/03/15 05:13:20;;;;;;;26.87;25.87;;;17.00;54.10;;;;;;5055008;28;20434;-48
2022/03/15 05:15:47;;;;;;;27.40;26.20;;;17.00;54.20;;;;;;5072129;28;20475;-46
2022/03/15 05:18:14;;;;;;;26.43;25.33;;;17.00;54.30;;;;;;5072264;28;20450;-46
2022/03/15 05:20:41;;;;;;;28.03;26.67;;;17.00;54.30;;;;;;5071980;28;20466;-49
2022/03/15 05:23:07;;;;;;;26.40;25.33;;;17.00;54.40;;;;;;5071614;28;20439;-47
2022/03/15 05:25:34;;;;;;;26.47;25.37;;;17.00;54.30;;;;;;5072054;28;20467;-46
2022/03/15 05:28:01;;;;;;;26.00;24.90;;;17.00;54.30;;;;;;5072183;28;20471;-48
2022/03/15 05:30:29;;;;;;;25.70;24.60;;;17.00;54.40;;;;;;5071739;28;20475;-46
2022/03/15 05:32:56;;;;;;;26.03;24.93;;;17.00;54.40;;;;;;5071855;28;20444;-46
2022/03/15 05:35:23;;;;;;;26.80;25.70;;;17.00;54.60;;;;;;5071896;28;20467;-46
2022/03/15 05:37:49;;;;;;;24.90;23.90;;;16.90;54.60;;;;;;5071879;28;20986;-47
2022/03/15 05:40:16;;;;;;;26.40;25.30;;;16.90;54.70;;;;;;5071637;28;20962;-46
2022/03/15 05:42:43;;;;;;;26.07;25.07;;;16.90;54.70;;;;;;5071609;28;20456;-46
2022/03/15 05:45:10;;;;;;;24.50;23.50;;;17.00;54.80;;;;;;5071646;28;20471;-46
2022/03/15 05:47:38;;;;;;;25.30;24.30;;;17.00;54.70;;;;;;5071737;28;20443;-46
2022/03/15 05:50:06;;;;;;;25.03;24.00;;;17.00;54.60;;;;;;5071868;28;20443;-46
2022/03/15 05:52:33;;;;;;;24.80;23.70;;;17.00;54.80;;;;;;5071328;28;20487;-46
2022/03/15 05:54:59;;;;;;;25.60;24.60;;;16.90;54.90;;;;;;5071558;28;20801;-46
2022/03/15 05:57:26;;;;;;;27.40;26.30;;;17.00;55.00;;;;;;5071649;28;20450;-46
2022/03/15 05:59:53;;;;;;;25.93;24.83;;;17.00;54.80;;;;;;5071529;28;20446;-48
2022/03/15 06:02:20;;;;;;;28.70;27.40;;;17.00;54.70;;;;;;5071409;28;20512;-46
2022/03/15 06:04:49;;;;;;;28.63;27.23;;;17.10;54.80;;;;;;5071401;28;21037;-46
2022/03/15 06:07:15;;;;;;;28.13;26.60;;;17.10;56.30;;;;;;5071464;28;20443;-46
2022/03/15 06:09:42;;;;;;;29.00;27.13;;;17.20;61.60;;;;;;5071505;28;20798;-46
2022/03/15 06:12:10;;;;;;;29.57;27.80;;;17.20;63.60;;;;;;5071046;28;20484;-47
2022/03/15 06:14:37;;;;;;;30.93;28.70;;;17.20;62.40;;;;;;5071583;28;20837;-45
2022/03/15 06:17:04;;;;;;;29.00;27.30;;;17.20;63.50;;;;;;5071423;28;20447;-45
2022/03/15 06:19:31;;;;;;;29.07;27.23;;;17.20;65.70;;;;;;5071402;28;20486;-46
2022/03/15 06:21:59;;;;;;;28.60;26.40;;;17.20;67.20;;;;;;5071465;28;20807;-46
2022/03/15 06:24:26;;;;;;;29.87;28.20;;;17.20;67.00;;;;;;5071205;28;20975;-46
2022/03/15 06:26:53;;;;;;;28.47;26.80;;;17.20;66.30;;;;;;5071269;28;20451;-46
2022/03/15 06:29:20;;;;;;;29.27;27.20;;;17.20;65.50;;;;;;5071275;28;20810;-46
2022/03/15 06:31:47;;;;;;;30.60;28.50;;;17.20;64.70;;;;;;5071247;28;20491;-51
2022/03/15 06:34:13;;;;;;;29.57;28.00;;;17.30;64.10;;;;;;5071009;28;20454;-46
2022/03/15 06:36:41;;;;;;;28.70;27.30;;;17.20;63.30;;;;;;5075165;28;20450;-46
2022/03/15 06:39:09;;;;;;;28.50;26.93;;;17.30;62.80;;;;;;5075382;28;20451;-46
2022/03/15 06:41:37;;;;;;;29.43;27.73;;;17.30;62.20;;;;;;5075147;28;20773;-46
2022/03/15 06:44:04;;;;;;;29.13;27.60;;;17.30;62.40;;;;;;5075280;28;20814;-46
2022/03/15 06:46:32;;;;;;;33.30;31.53;;;17.30;61.10;;;;;;5075097;28;20530;-48
2022/03/15 06:48:58;;;;;;;29.33;28.03;;;17.30;60.70;;;;;;5075147;28;20504;-45
2022/03/15 06:51:25;;;;;;;29.93;28.33;;;17.30;60.30;;;;;;5074918;28;20479;-51
2022/03/15 06:53:52;;;;;;;30.30;28.60;;;17.30;59.90;;;;;;5074885;28;20804;-46
2022/03/15 06:56:21;;;;;;;27.27;26.07;;;17.40;59.70;;;;;;5074870;28;20470;-45
2022/03/15 06:58:49;;;;;;;27.97;26.60;;;17.30;59.20;;;;;;5074948;28;20447;-46
2022/03/15 07:01:16;;;;;;;28.80;27.27;;;17.30;59.00;;;;;;5074755;28;20436;-47
2022/03/15 07:03:44;;;;;;;28.10;26.80;;;17.40;58.80;;;;;;5074619;28;20443;-46
2022/03/15 07:06:12;;;;;;;28.77;27.17;;;17.30;58.60;;;;;;5074675;28;21084;-45
2022/03/15 07:08:38;;;;;;;28.17;26.53;;;17.30;58.30;;;;;;5074626;28;20505;-46
2022/03/15 07:11:05;;;;;;;28.03;26.57;;;17.30;58.10;;;;;;5074584;28;20483;-46
2022/03/15 07:13:33;;;;;;;26.73;25.23;;;17.30;57.90;;;;;;5074419;28;20456;-50
2022/03/15 07:16:00;;;;;;;28.50;26.33;;;17.40;57.90;;;;;;5074412;28;20479;-48
2022/03/15 07:18:27;;;;;;;28.03;26.50;;;17.30;57.70;;;;;;5074596;28;20443;-46
2022/03/15 07:20:53;;;;;;;29.10;27.60;;;17.30;57.40;;;;;;5074396;28;20470;-46
2022/03/15 07:23:21;;;;;;;28.47;26.87;;;17.30;57.30;;;;;;5074196;28;20954;-48
2022/03/15 07:25:47;;;;;;;26.30;25.10;;;17.40;57.20;;;;;;5074309;28;20477;-45
2022/03/15 07:28:14;;;;;;;26.10;24.67;;;17.30;57.00;;;;;;5074366;28;20451;-50
2022/03/15 07:30:43;;;;;;;26.97;25.67;;;17.40;56.80;;;;;;5074038;28;20447;-46
2022/03/15 07:33:10;;;;;;;30.53;29.13;;;17.40;56.70;;;;;;5074240;28;20455;-45
2022/03/15 07:35:37;;;;;;;27.60;26.20;;;17.30;56.50;;;;;;5074177;28;20471;-48
2022/03/15 07:38:04;;;;;;;29.53;28.23;;;17.40;56.50;;;;;;5074187;28;20795;-46
2022/03/15 07:40:31;;;;;;;28.90;27.20;;;17.40;56.30;;;;;;5074078;28;20446;-51
2022/03/15 07:42:58;;;;;;;30.00;28.60;;;17.40;56.20;;;;;;5073980;28;20937;-45
2022/03/15 07:45:25;;;;;;;28.13;26.77;;;17.30;56.00;;;;;;5074044;28;20471;-46
2022/03/15 07:47:53;;;;;;;27.90;26.60;;;17.40;56.00;;;;;;5072805;28;20447;-46
2022/03/15 07:50:21;;;;;;;28.73;27.50;;;17.40;55.80;;;;;;5073866;28;20447;-46
2022/03/15 07:52:48;;;;;;;28.87;27.57;;;17.40;55.70;;;;;;5073627;28;20486;-46
2022/03/15 07:55:15;;;;;;;26.33;25.13;;;17.40;55.60;;;;;;5073876;28;21062;-47
2022/03/15 07:57:42;;;;;;;29.73;28.43;;;17.40;55.50;;;;;;5073836;28;20445;-46
2022/03/15 08:00:10;;;;;;;29.07;27.77;;;17.40;55.40;;;;;;5073993;28;20908;-46
2022/03/15 08:02:37;;;;;;;30.97;29.27;;;17.40;55.20;;;;;;5073619;28;20999;-49
2022/03/15 08:05:06;;;;;;;28.33;27.13;;;17.40;55.10;;;;;;5073666;28;20463;-47
2022/03/15 08:07:33;;;;;;;27.80;26.50;;;17.40;55.00;;;;;;5073706;28;20444;-46
2022/03/15 08:10:00;;;;;;;31.27;29.97;;;17.40;54.90;;;;;;5073540;28;20455;-46
2022/03/15 08:12:27;;;;;;;30.17;28.27;;;17.40;54.80;;;;;;5073497;28;20479;-46
2022/03/15 08:14:54;;;;;;;29.10;27.80;;;17.40;54.70;;;;;;5073272;28;20471;-46
2022/03/15 08:17:21;;;;;;;28.07;26.87;;;17.40;54.60;;;;;;5073486;28;20514;-46
2022/03/15 08:19:47;;;;;;;28.03;26.63;;;17.40;54.60;;;;;;5073431;28;20450;-50
2022/03/15 08:22:15;;;;;;;28.53;27.33;;;17.40;54.50;;;;;;5073284;28;20470;-46
2022/03/15 08:24:42;;;;;;;28.43;27.13;;;17.40;54.40;;;;;;5073053;28;20467;-46
2022/03/15 08:27:10;;;;;;;29.33;27.93;;;17.40;54.30;;;;;;5073315;28;20447;-50
2022/03/15 08:29:36;;;;;;;28.43;27.23;;;17.40;54.20;;;;;;5073175;28;20444;-46
2022/03/15 08:32:03;;;;;;;30.20;28.80;;;17.40;54.20;;;;;;5073203;28;20486;-46
2022/03/15 08:34:30;;;;;;;28.27;26.97;;;17.40;54.20;;;;;;5072908;28;20859;-49
2022/03/15 08:36:57;;;;;;;31.57;30.37;;;17.40;54.10;;;;;;5073197;28;20444;-46
2022/03/15 08:39:25;;;;;;;29.23;28.03;;;17.40;54.00;;;;;;5073045;28;20806;-45
2022/03/15 08:41:53;;;;;;;30.30;29.00;;;17.40;54.00;;;;;;5072900;28;20435;-46
2022/03/15 08:44:22;;;;;;;29.73;28.33;;;17.40;54.00;;;;;;5072773;28;20447;-46
2022/03/15 08:46:49;;;;;;;27.30;26.00;;;17.40;53.70;;;;;;5072929;28;20455;-46
2022/03/15 08:49:17;;;;;;;28.80;27.60;;;17.50;53.60;;;;;;5072857;28;20440;-46
2022/03/15 08:51:45;;;;;;;30.03;28.77;;;17.50;53.50;;;;;;5072696;28;20487;-46
2022/03/15 08:54:11;;;;;;;27.83;26.67;;;17.50;53.50;;;;;;5072358;28;20443;-46
2022/03/15 08:56:41;;;;;;;28.63;27.33;;;17.40;53.40;;;;;;5072754;28;20795;-45
2022/03/15 08:59:09;;;;;;;29.03;27.93;;;17.40;53.40;;;;;;5072711;28;20863;-45
2022/03/15 09:01:36;;;;;;;29.50;28.10;;;17.40;53.40;;;;;;5072395;28;20443;-46
2022/03/15 09:04:03;;;;;;;28.50;27.30;;;17.40;53.90;;;;;;5072483;28;20815;-52
2022/03/15 09:06:29;;;;;;;28.23;27.03;;;17.50;53.40;;;;;;5072312;28;20467;-48
2022/03/15 09:08:57;;;;;;;29.67;28.10;;;17.50;53.20;;;;;;5072353;28;20439;-46
2022/03/15 09:11:24;;;;;;;28.23;27.03;;;17.50;53.10;;;;;;5072243;28;20534;-46
2022/03/15 09:13:52;;;;;;;28.33;27.20;;;17.60;52.90;;;;;;5072103;28;20443;-50
2022/03/15 09:16:20;;;;;;;28.07;26.93;;;17.60;52.80;;;;;;5072106;28;20503;-51
2022/03/15 09:18:47;;;;;;;27.83;26.70;;;17.60;52.70;;;;;;5072280;28;20483;-46
2022/03/15 09:21:14;;;;;;;28.33;27.13;;;17.60;52.60;;;;;;5072051;28;20439;-45
2022/03/15 09:23:41;;;;;;;27.60;26.50;;;17.60;52.60;;;;;;5072044;28;20814;-46
2022/03/15 09:26:08;;;;;;;27.40;26.20;;;17.60;52.50;;;;;;5072148;28;20475;-48
2022/03/15 09:28:35;;;;;;;27.57;26.30;;;17.60;52.40;;;;;;5072093;28;20448;-46
2022/03/15 09:31:03;;;;;;;26.23;25.23;;;17.70;52.30;;;;;;5072077;28;20444;-46
2022/03/15 09:33:30;;;;;;;26.40;25.30;;;17.70;52.10;;;;;;5071854;28;20514;-46
2022/03/15 09:35:57;;;;;;;25.90;24.60;;;17.70;51.90;;;;;;5071935;28;20470;-46
2022/03/15 09:38:25;;;;;;;27.20;26.10;;;17.70;51.90;;;;;;5071919;28;20443;-46
2022/03/15 09:40:54;;;;;;;26.07;25.07;;;17.70;51.70;;;;;;5071865;28;20447;-46
2022/03/15 09:43:23;;;;;;;27.60;26.50;;;17.80;51.70;;;;;;5071786;28;20443;-45
2022/03/15 09:45:51;;;;;;;28.80;27.60;;;17.80;51.50;;;;;;5071861;28;20467;-51
2022/03/15 09:48:24;;;;;;;30.87;29.60;;;17.80;51.40;;;;;;5071908;28;20435;-46
2022/03/15 09:50:52;;;;;;;30.17;28.97;;;17.80;51.40;;;;;;5071565;28;20471;-47
2022/03/15 09:53:20;;;;;;;29.97;28.67;;;17.80;51.20;;;;;;5071797;28;20479;-47
2022/03/15 09:55:48;;;;;;;29.30;28.00;;;17.80;51.20;;;;;;5071687;28;20970;-46
2022/03/15 09:58:18;;;;;;;28.30;27.10;;;17.80;51.10;;;;;;5071672;28;20501;-45
2022/03/15 10:00:44;;;;;;;27.77;26.67;;;17.80;51.10;;;;;;5071599;28;20466;-48
2022/03/15 10:03:14;;;;;;;27.87;26.77;;;17.80;51.10;;;;;;5071565;28;20439;-46
2022/03/15 10:05:44;;;;;;;27.50;26.40;;;17.80;51.00;;;;;;5071549;28;20807;-46
2022/03/15 10:08:15;;;;;;;27.83;26.73;;;17.80;50.90;;;;;;5071645;28;20958;-46
2022/03/15 10:10:41;;;;;;;28.97;27.67;;;17.90;50.90;;;;;;5070860;28;20443;-45
2022/03/15 10:13:09;;;;;;;30.20;29.10;;;17.90;50.80;;;;;;5071253;28;20479;-46
2022/03/15 10:15:36;;;;;;;27.97;26.87;;;17.90;50.80;;;;;;5071250;28;20467;-46
2022/03/15 10:18:05;;;;;;;27.77;26.67;;;17.90;50.70;;;;;;5071363;28;20814;-46
2022/03/15 10:20:40;;;;;;;28.63;27.43;;;17.90;50.70;;;;;;5071280;28;20491;-46
2022/03/15 10:23:09;;;;;;;29.40;28.20;;;17.90;50.70;;;;;;5071318;28;20439;-49
2022/03/15 10:25:37;;;;;;;27.60;26.50;;;17.90;50.60;;;;;;5071220;28;20501;-46
2022/03/15 10:28:06;;;;;;;26.67;25.37;;;17.90;50.60;;;;;;5071427;28;20802;-46
2022/03/15 10:30:34;;;;;;;27.43;26.33;;;17.90;50.60;;;;;;5071233;28;20454;-51
2022/03/15 10:33:01;;;;;;;28.03;26.93;;;17.90;50.70;;;;;;5071096;28;20480;-50
2022/03/15 10:35:30;;;;;;;25.13;24.13;;;17.90;50.60;;;;;;5071213;28;20621;-46
2022/03/15 10:37:57;;;;;;;25.43;24.43;;;17.90;50.60;;;;;;5071253;28;20498;-46
2022/03/15 10:40:34;;;;;;;24.63;23.63;;;17.80;50.50;;;;;;5070473;28;20448;-48
2022/03/15 10:43:07;;;;;;;25.50;24.50;;;17.90;50.60;;;;;;5070750;28;20450;-52
2022/03/15 10:45:36;;;;;;;26.70;25.50;;;17.90;50.50;;;;;;5070850;28;20478;-52
2022/03/15 10:48:13;;;;;;;26.20;25.10;;;17.90;51.00;;;;;;5071157;28;20450;-45
2022/03/15 10:50:50;;;;;;;26.33;25.03;;;17.90;51.80;;;;;;5070748;28;20923;-45
2022/03/15 10:53:17;;;;;;;25.70;24.70;;;17.80;52.50;;;;;;5070926;28;20479;-45
2022/03/15 10:55:45;;;;;;;26.40;24.10;;;17.90;53.00;;;;;;5070096;28;20470;-45
2022/03/15 10:58:15;;;;;;;25.40;24.40;;;17.90;53.70;;;;;;5071106;28;20447;-45
2022/03/15 11:00:43;;;;;;;25.23;24.13;;;17.90;54.10;;;;;;5070620;28;20448;-45
2022/03/15 11:03:13;;;;;;;25.33;24.23;;;17.90;54.40;;;;;;5070913;28;20444;-47
2022/03/15 11:05:41;;;;;;;24.60;23.50;;;17.90;54.60;;;;;;5070991;28;20482;-45
2022/03/15 11:08:10;;;;;;;24.93;23.33;;;18.00;54.80;;;;;;5071142;28;20443;-47
2022/03/15 11:10:38;;;;;;;25.97;24.80;;;18.00;55.00;;;;;;5070706;28;20447;-48
2022/03/15 11:13:11;;;;;;;24.30;23.30;;;18.00;55.20;;;;;;5050754;28;20483;-43
2022/03/15 11:15:40;;;;;;;26.53;25.33;;;18.00;55.30;;;;;;5050825;28;20480;-44
2022/03/15 11:18:09;;;;;;;25.50;24.50;;;18.00;55.50;;;;;;5050953;28;20507;-45
2022/03/15 11:20:37;;;;;;;26.50;25.20;;;18.00;55.60;;;;;;5051890;28;20447;-44
2022/03/15 11:23:07;;;;;;;27.67;26.37;;;18.00;55.60;;;;;;5074463;28;20443;-45
2022/03/15 11:25:36;;;;;;;26.87;25.33;;;18.00;55.60;;;;;;5074400;28;20471;-45
2022/03/15 11:28:06;;;;;;;27.50;26.40;;;18.00;55.60;;;;;;5074488;28;20447;-46
2022/03/15 11:30:35;;;;;;;26.93;25.80;;;18.00;55.50;;;;;;5074117;28;20500;-49
2022/03/15 11:33:04;;;;;;;25.53;24.43;;;18.00;55.80;;;;;;5054067;28;20550;-44
2022/03/15 11:35:32;;;;;;;26.80;25.70;;;18.00;55.80;;;;;;5054374;28;20483;-47
2022/03/15 14:48:49;;;;;;;29.93;28.63;;;22.50;41.00;;;;;;5129205;27;20989;-46
2022/03/15 14:51:15;;;;;;;27.87;26.60;;;22.20;42.20;;;;;;5109257;28;20442;-45
2022/03/15 14:53:42;;;;;;;27.40;26.20;;;21.80;42.60;;;;;;5109230;28;20465;-48
2022/03/15 14:56:10;;;;;;;26.97;25.77;;;21.60;43.20;;;;;;5109560;28;20449;-47
2022/03/15 14:58:38;;;;;;;27.33;26.13;;;21.30;43.70;;;;;;5108772;28;20976;-47
2022/03/15 15:01:05;;;;;;;27.57;26.27;;;21.20;44.20;;;;;;5109501;28;20983;-45
2022/03/15 15:03:34;;;;;;;28.27;27.07;;;21.00;44.60;;;;;;5109210;28;20438;-47
2022/03/15 15:06:03;;;;;;;28.40;27.10;;;20.90;45.00;;;;;;5109011;28;20453;-46
2022/03/15 15:08:30;;;;;;;29.57;28.27;;;20.80;45.50;;;;;;5108540;28;20980;-45
2022/03/15 15:10:58;;;;;;;30.27;28.97;;;20.70;45.70;;;;;;5109268;28;20450;-47
2022/03/15 15:13:26;;;;;;;31.30;29.90;;;20.70;46.00;;;;;;5109618;28;20448;-48
2022/03/15 15:15:54;;;;;;;29.80;27.90;;;20.70;46.20;;;;;;5108072;28;20427;-43
2022/03/15 15:18:22;;;;;;;69.57;48.60;;;20.70;46.80;;;;;;5107202;28;20645;-47
2022/03/15 15:20:50;;;;;;;70.90;51.37;;;20.70;47.20;;;;;;5108316;28;20442;-48
2022/03/15 15:23:19;;;;;;;67.33;51.00;;;20.80;47.70;;;;;;5108807;28;20933;-46
2022/03/15 15:25:46;;;;;;;60.23;50.47;;;20.80;48.10;;;;;;5108620;28;20966;-44
2022/03/15 15:28:13;;;;;;;66.23;49.90;;;20.80;48.90;;;;;;5107967;28;20511;-43
2022/03/15 15:30:42;;;;;;;80.83;52.27;;;20.70;48.90;;;;;;5108516;28;20442;-44
2022/03/15 15:33:09;;;;;;;67.37;49.97;;;20.60;49.00;;;;;;5108577;28;20449;-44
2022/03/15 15:35:37;;;;;;;63.93;53.13;;;20.60;49.30;;;;;;5108428;28;20434;-44
2022/03/15 15:38:08;;;;;;;63.83;50.50;;;20.50;49.50;;;;;;5107604;28;20479;-44
2022/03/15 15:40:36;;;;;;;66.30;51.67;;;20.40;49.80;;;;;;5108324;28;20449;-45
2022/03/15 15:43:06;;;;;;;83.90;52.07;;;20.40;50.20;;;;;;5108271;28;20533;-47